Kidron, Ohio
Current Conditions -  °F | °C
As of 9:37 AM on Saturday 22 Nov 2014 (Local Time) from KCAK Reporting Station
Freezing Rain Freezing Rain  
Wind Chill: -7°   Ceiling: 1200
Heat Index: -1°   Visibility: 2mi
Dew Point: -3°   Wind: 14mph
Humidity: 86%   Direction: 200°SSW
Pressure: 30.24"   Gusts: NA
Location:  40.74°N, 81.74°W
Report Text: KCAK 221437Z 20012KT 2SM FZRA OVC012 M01/M03 A3024 RMK AO2 P0002 $
Loading
Personal Weather Stations






























Interactive Weather Map New forecast layout! Learn more

10-Day Weather Forecast

Advertisements
Track Severe Weather on mobile